Time;durP1;ratioP1;P1;durP2;ratioP2;P2;SDS_P1;SDS_P2;PMS_P1;PMS_P2;Temp;Humidity;BMP_temperature;BMP_pressure;BME280_temperature;BME280_humidity;BME280_pressure;Samples;Min_cycle;Max_cycle;Signal;HPM_P1;HPM_P2
2022/11/04 00:01:39;;;;;;;;;4.00;2.00;;;;;11.68;71.87;100032.47;5056993;28;45183;-45
2022/11/04 00:04:05;;;;;;;;;1.00;1.00;;;;;11.80;71.29;100034.75;5057020;28;45363;-45
2022/11/04 00:06:30;;;;;;;;;4.33;1.00;;;;;11.81;71.87;100052.44;5057414;28;45288;-43
2022/11/04 00:08:57;;;;;;;;;4.67;2.00;;;;;11.78;71.53;100028.78;5057000;28;46269;-47
2022/11/04 00:14:08;;;;;;;;;2.00;0.33;;;;;11.79;71.28;100033.94;5057079;28;45461;-44
2022/11/04 00:19:18;;;;;;;;;7.33;2.33;;;;;11.81;71.29;100012.47;5060371;28;45258;-45
2022/11/04 00:29:58;;;;;;;;;2.33;1.33;;;;;11.78;71.76;99991.47;5060166;28;46035;-44
2022/11/04 00:35:09;;;;;;;;;3.00;1.00;;;;;11.81;72.17;99999.13;5060688;28;45271;-45
2022/11/04 00:37:36;;;;;;;;;3.00;1.00;;;;;11.83;72.52;100003.31;5060388;28;45322;-47
2022/11/04 00:40:02;;;;;;;;;3.00;1.00;;;;;11.80;72.04;99982.31;5060020;28;47100;-44
2022/11/04 00:42:27;;;;;;;;;4.00;1.00;;;;;11.84;72.03;100001.47;5060292;28;45379;-44
2022/11/04 00:44:52;;;;;;;;;1.33;1.33;;;;;11.89;72.32;99999.13;5060521;28;45454;-43
2022/11/04 00:47:18;;;;;;;;;1.67;1.00;;;;;11.87;71.94;99993.97;5060278;28;45295;-44
2022/11/04 00:49:44;;;;;;;;;0.00;0.00;;;;;11.85;72.48;99995.16;5060094;28;46415;-42
2022/11/04 00:52:09;;;;;;;;;2.00;1.00;;;;;11.86;72.47;99996.81;5060075;28;45394;-44
2022/11/04 00:54:35;;;;;;;;;2.00;1.00;;;;;11.87;72.34;100003.78;5059974;28;45466;-42
2022/11/04 00:57:00;;;;;;;;;2.00;0.67;;;;;11.88;72.57;100006.31;5060025;28;45208;-45
2022/11/04 00:59:25;;;;;;;;;1.00;1.00;;;;;11.90;71.98;99998.13;5059975;28;46486;-46
2022/11/04 01:01:51;;;;;;;;;1.33;1.33;;;;;11.90;71.99;99987.47;5059715;28;45358;-42
2022/11/04 01:04:16;;;;;;;;;0.00;0.00;;;;;11.88;71.79;99989.44;5059871;28;45433;-47
2022/11/04 01:06:42;;;;;;;;;2.33;1.00;;;;;11.87;72.27;99983.28;5060103;28;45336;-43
2022/11/04 01:09:09;;;;;;;;;1.67;1.00;;;;;11.88;72.00;99981.47;5059454;28;45374;-46
2022/11/04 01:11:35;;;;;;;;;2.33;1.00;;;;;11.86;71.96;99986.16;5059493;28;45323;-45
2022/11/04 01:14:00;;;;;;;;;1.00;1.00;;;;;11.86;72.23;99975.50;5059684;28;45268;-43
2022/11/04 01:16:27;;;;;;;;;2.00;1.33;;;;;11.87;72.39;99975.31;5059754;28;45405;-44
2022/11/04 01:18:52;;;;;;;;;2.00;2.00;;;;;11.88;72.24;99966.31;5059541;28;47388;-47
2022/11/04 01:21:18;;;;;;;;;0.67;0.67;;;;;11.88;72.74;99971.66;5059367;28;45246;-44
2022/11/04 01:23:44;;;;;;;;;7.00;2.33;;;;;11.83;72.39;99971.31;5059523;28;45504;-44
2022/11/04 01:26:13;;;;;;;;;2.00;1.00;;;;;11.81;72.98;99962.66;5059848;28;45252;-43
2022/11/04 01:28:39;;;;;;;;;2.33;1.00;;;;;11.84;73.01;99967.69;5058201;28;46384;-42
2022/11/04 01:31:10;;;;;;;;;7.67;0.67;;;;;11.90;73.15;99971.47;5059499;28;45327;-43
2022/11/04 01:33:37;;;;;;;;;2.00;0.67;;;;;11.91;73.38;99962.47;5059442;28;45489;-45
2022/11/04 01:36:04;;;;;;;;;2.00;1.00;;;;;11.92;73.12;99970.28;5059698;28;45322;-45
2022/11/04 01:38:30;;;;;;;;;2.00;2.00;;;;;11.93;72.47;99958.63;5058989;28;47368;-44
2022/11/04 01:40:55;;;;;;;;;3.00;2.00;;;;;11.93;72.62;99955.97;5058947;28;45512;-43
2022/11/04 01:43:22;;;;;;;;;3.00;1.00;;;;;11.93;72.68;99960.47;5059409;28;45322;-43
2022/11/04 01:45:52;;;;;;;;;1.00;1.00;;;;;11.92;72.80;99951.63;5059147;28;45502;-46
2022/11/04 01:48:24;;;;;;;;;0.67;0.00;;;;;11.75;72.20;99918.03;5058864;28;45410;-44
2022/11/04 01:50:52;;;;;;;;;3.00;1.33;;;;;11.82;72.68;99948.31;5059047;28;45256;-43
2022/11/04 01:53:23;;;;;;;;;1.00;0.33;;;;;11.70;72.67;99925.72;5059031;28;45372;-45
2022/11/04 01:55:55;;;;;;;;;2.67;1.00;;;;;11.78;72.39;99939.00;5059233;28;45415;-43
2022/11/04 01:58:25;;;;;;;;;4.67;1.67;;;;;11.74;72.91;99932.38;5058874;28;46081;-46
2022/11/04 02:00:50;;;;;;;;;1.00;1.00;;;;;11.78;72.25;99916.88;5058700;28;46119;-43
2022/11/04 02:03:27;;;;;;;;;3.00;1.33;;;;;11.71;72.34;99903.41;5058509;28;45482;-46
2022/11/04 02:05:53;;;;;;;;;5.33;0.33;;;;;11.78;72.28;99930.19;5059122;28;45319;-42
2022/11/04 02:08:20;;;;;;;;;0.00;0.00;;;;;11.77;72.66;99909.88;5058497;28;46683;-45
2022/11/04 02:10:51;;;;;;;;;1.00;1.00;;;;;11.76;72.58;99911.72;5058555;28;45248;-43
2022/11/04 02:13:17;;;;;;;;;5.00;1.00;;;;;11.73;72.73;99904.91;5058648;28;45209;-43
2022/11/04 02:16:07;;;;;;;;;1.67;1.00;;;;;11.74;72.29;99925.19;5058905;28;45304;-43
2022/11/04 02:18:50;;;;;;;;;2.00;0.33;;;;;11.75;72.17;99928.69;5058055;28;46253;-45
2022/11/04 02:21:43;;;;;;;;;0.67;0.67;;;;;11.72;72.39;99905.09;5058325;28;45373;-44
2022/11/04 02:24:54;;;;;;;;;2.00;0.00;;;;;11.74;72.07;99906.56;5058475;28;45524;-43
2022/11/04 02:27:47;;;;;;;;;1.33;1.33;;;;;11.73;72.57;99923.56;5027400;28;45510;-48
2022/11/04 02:30:17;;;;;;;;;0.00;0.00;;;;;11.61;71.96;99903.63;5058457;28;45365;-43
2022/11/04 02:33:01;;;;;;;;;2.00;0.00;;;;;11.66;72.59;99911.91;5058296;28;45420;-50
2022/11/04 02:35:48;;;;;;;;;2.00;0.00;;;;;11.67;72.28;99912.75;5058422;28;45304;-45
2022/11/04 02:38:28;;;;;;;;;3.33;1.00;;;;;11.65;72.78;99930.75;5058620;28;45428;-45
2022/11/04 02:41:15;;;;;;;;;0.00;0.00;;;;;11.64;72.62;99921.09;5057789;28;47422;-45
2022/11/04 02:43:59;;;;;;;;;0.00;0.00;;;;;11.67;72.87;99918.94;5057985;28;45336;-46
2022/11/04 02:46:35;;;;;;;;;3.33;0.33;;;;;11.70;72.64;99923.88;5058103;28;45286;-46
2022/11/04 02:49:09;;;;;;;;;3.00;3.00;;;;;11.74;72.49;99914.53;5058238;28;45331;-48
2022/11/04 02:51:43;;;;;;;;;1.00;0.67;;;;;11.63;72.06;99906.97;5058066;28;46308;-48
2022/11/04 02:54:21;;;;;;;;;3.33;0.67;;;;;11.73;72.38;99910.22;5057837;28;45299;-52
2022/11/04 02:56:49;;;;;;;;;1.00;0.00;;;;;11.77;72.99;99916.03;5058221;28;45494;-46
2022/11/04 02:59:47;;;;;;;;;2.33;0.00;;;;;11.78;72.47;99904.38;5058200;28;45387;-49
2022/11/04 03:02:20;;;;;;;;;1.00;1.00;;;;;11.77;72.71;99901.91;4975768;28;46068;-46
2022/11/04 03:04:50;;;;;;;;;0.00;0.00;;;;;11.75;72.72;99880.72;4976167;28;45377;-47
2022/11/04 03:07:21;;;;;;;;;4.67;1.00;;;;;11.78;72.46;99890.22;4976125;28;45378;-46
2022/11/04 03:09:52;;;;;;;;;2.67;1.33;;;;;11.79;73.14;99891.88;4976425;28;45346;-46
2022/11/04 03:12:24;;;;;;;;;0.00;0.00;;;;;11.82;72.77;99894.19;4975748;28;47039;-50
2022/11/04 03:15:00;;;;;;;;;1.00;1.00;;;;;11.85;72.17;99883.22;4975936;28;45306;-49
2022/11/04 03:17:35;;;;;;;;;1.00;1.00;;;;;11.80;72.86;99872.22;4975910;28;45324;-45
2022/11/04 03:20:05;;;;;;;;;2.00;0.00;;;;;11.85;72.72;99883.22;4976073;28;45382;-47
2022/11/04 03:22:35;;;;;;;;;1.67;0.67;;;;;11.85;72.18;99885.91;4975519;28;46085;-48
2022/11/04 03:25:03;;;;;;;;;4.67;1.00;;;;;11.84;72.73;99877.06;4975866;28;45318;-49
2022/11/04 03:27:31;;;;;;;;;1.00;1.00;;;;;11.86;72.83;99876.88;4975761;28;45549;-49
2022/11/04 03:30:00;;;;;;;;;3.00;0.00;;;;;11.81;72.54;99864.06;4975997;28;45387;-44
2022/11/04 03:32:37;;;;;;;;;1.00;0.00;;;;;11.81;72.44;99861.41;4975573;28;45318;-46
2022/11/04 03:35:03;;;;;;;;;0.00;0.00;;;;;11.74;72.28;99849.78;4975761;28;45278;-46
2022/11/04 03:37:29;;;;;;;;;1.00;1.00;;;;;11.84;72.46;99865.56;4975858;28;45376;-45
2022/11/04 03:39:55;;;;;;;;;0.67;0.00;;;;;11.83;72.08;99861.25;5040206;28;45315;-45
2022/11/04 03:42:22;;;;;;;;;3.00;0.00;;;;;11.87;72.33;99863.38;5057271;28;45437;-50
2022/11/04 03:44:56;;;;;;;;;1.00;1.00;;;;;11.85;71.80;99862.75;5057183;28;45495;-49
2022/11/04 03:47:24;;;;;;;;;2.00;1.00;;;;;11.79;72.06;99851.91;5057099;28;45548;-46
2022/11/04 03:49:54;;;;;;;;;3.67;1.00;;;;;11.80;72.19;99859.75;5057323;28;45284;-47
2022/11/04 03:52:20;;;;;;;;;1.67;1.67;;;;;11.79;72.41;99860.72;5056262;28;46666;-46
2022/11/04 03:54:46;;;;;;;;;1.00;0.00;;;;;11.76;72.29;99847.78;5056996;28;45418;-46
2022/11/04 03:57:47;;;;;;;;;3.67;1.00;;;;;11.79;71.70;99857.25;5057329;28;45326;-44
2022/11/04 04:00:18;;;;;;;;;1.00;0.00;;;;;11.71;72.36;99855.44;5057173;28;45373;-45
2022/11/04 04:03:02;;;;;;;;;1.33;1.00;;;;;11.73;72.58;99854.28;5056654;28;46307;-47
2022/11/04 04:05:39;;;;;;;;;1.33;1.00;;;;;11.73;71.86;99856.13;5056724;28;45283;-44
2022/11/04 04:08:19;;;;;;;;;0.00;0.00;;;;;11.71;72.11;99860.78;5057110;28;45366;-46
2022/11/04 04:10:47;;;;;;;;;0.67;0.00;;;;;11.68;72.59;99859.31;5057268;28;45381;-45
2022/11/04 04:13:20;;;;;;;;;0.00;0.00;;;;;11.63;72.24;99871.47;5056737;28;45399;-43
2022/11/04 04:16:00;;;;;;;;;0.67;0.00;;;;;11.63;72.30;99877.66;5056815;28;45365;-49
2022/11/04 04:18:32;;;;;;;;;6.00;1.00;;;;;11.64;72.07;99865.16;5056760;28;45272;-48
2022/11/04 04:21:02;;;;;;;;;0.00;0.00;;;;;11.63;71.99;99866.16;5057077;28;45350;-47
2022/11/04 04:29:05;;;;;;;;;0.00;0.00;;;;;11.57;72.16;99859.69;5057052;28;45360;-48
2022/11/04 04:31:49;;;;;;;;;0.00;0.00;;;;;11.62;72.12;99873.31;5056931;28;45374;-45
2022/11/04 04:34:18;;;;;;;;;1.00;1.00;;;;;11.64;72.24;99873.97;5056505;28;46219;-47
2022/11/04 04:36:56;;;;;;;;;1.00;0.00;;;;;11.62;72.06;99872.47;5056352;28;45448;-48
2022/11/04 04:45:02;;;;;;;;;1.00;0.00;;;;;11.62;72.33;99878.63;5056036;28;45882;-44
2022/11/04 04:47:42;;;;;;;;;0.00;0.00;;;;;11.63;72.12;99876.81;5056414;28;45343;-44
2022/11/04 04:50:10;;;;;;;;;0.33;0.00;;;;;11.63;71.90;99877.66;5056603;28;45251;-45
2022/11/04 04:52:38;;;;;;;;;2.00;1.00;;;;;11.62;71.74;99872.47;5056554;28;45346;-51
2022/11/04 04:55:05;;;;;;;;;0.00;0.00;;;;;11.60;72.00;99877.19;5056129;28;46180;-47
2022/11/04 04:57:30;;;;;;;;;3.00;0.00;;;;;11.58;71.86;99863.19;5056274;28;45248;-45
2022/11/04 04:59:55;;;;;;;;;2.00;0.00;;;;;11.60;72.16;99885.16;5056217;28;45276;-43
2022/11/04 05:02:21;;;;;;;;;1.00;0.00;;;;;11.62;72.28;99883.97;5073085;28;45336;-46
2022/11/04 05:04:46;;;;;;;;;2.00;0.00;;;;;11.63;72.26;99890.13;5058336;28;46189;-42
2022/11/04 05:07:12;;;;;;;;;0.00;0.00;;;;;11.64;71.83;99892.63;5059696;28;45591;-44
2022/11/04 05:09:37;;;;;;;;;2.67;1.00;;;;;11.67;72.13;99886.97;5059870;28;45403;-45
2022/11/04 05:12:03;;;;;;;;;0.67;0.00;;;;;11.68;71.75;99885.94;5059896;28;45270;-46
2022/11/04 05:14:29;;;;;;;;;1.67;1.00;;;;;11.68;71.70;99883.28;5059450;28;45696;-44
2022/11/04 05:16:54;;;;;;;;;1.00;1.00;;;;;11.66;72.16;99879.94;5059578;28;45447;-43
2022/11/04 05:19:20;;;;;;;;;0.00;0.00;;;;;11.66;71.88;99881.78;5058048;28;45510;-45
2022/11/04 05:21:45;;;;;;;;;0.33;0.33;;;;;11.66;72.02;99879.13;5059804;28;45329;-42
2022/11/04 05:24:11;;;;;;;;;0.00;0.00;;;;;11.67;71.74;99872.78;5059220;28;45335;-48
2022/11/04 05:26:36;;;;;;;;;1.33;0.00;;;;;11.69;71.60;99882.28;5059552;28;45402;-42
2022/11/04 05:29:01;;;;;;;;;0.00;0.00;;;;;11.68;72.09;99882.47;5059416;28;45589;-45
2022/11/04 05:31:28;;;;;;;;;3.00;1.67;;;;;11.71;71.73;99879.41;5059483;28;45349;-43
2022/11/04 05:33:53;;;;;;;;;1.00;0.00;;;;;11.69;71.55;99879.59;5059155;28;47326;-47
2022/11/04 05:36:18;;;;;;;;;4.00;0.33;;;;;11.68;71.90;99877.97;5059227;28;45422;-43
2022/11/04 05:38:50;;;;;;;;;0.33;0.33;;;;;11.76;71.91;99885.09;5059307;28;45353;-45
2022/11/04 05:41:24;;;;;;;;;1.00;1.00;;;;;11.77;71.37;99892.06;5059656;28;45347;-43
2022/11/04 05:43:51;;;;;;;;;5.00;0.00;;;;;11.77;71.37;99892.06;5058543;28;45415;-47
2022/11/04 05:46:17;;;;;;;;;2.00;0.67;;;;;11.73;71.40;99888.91;5058756;28;45402;-46
2022/11/04 05:48:42;;;;;;;;;3.33;1.00;;;;;11.75;71.76;99891.41;5059156;28;45315;-44
2022/11/04 05:51:13;;;;;;;;;1.00;1.00;;;;;11.79;72.01;99899.88;5059235;28;45422;-43
2022/11/04 05:53:38;;;;;;;;;1.00;0.33;;;;;11.81;71.34;99903.22;5058935;28;46558;-43
2022/11/04 05:56:03;;;;;;;;;3.00;0.00;;;;;11.73;71.89;99893.41;5058853;28;45381;-43
2022/11/04 05:58:29;;;;;;;;;0.00;0.00;;;;;11.79;71.47;99906.03;5059058;28;45333;-45
2022/11/04 06:01:27;;;;;;;;;5.00;1.00;;;;;11.78;71.74;99916.88;5059295;28;45363;-46
2022/11/04 06:03:53;;;;;;;;;0.00;0.00;;;;;11.83;71.62;99912.69;5058663;28;45430;-50
2022/11/04 06:06:19;;;;;;;;;0.00;0.00;;;;;11.83;71.58;99917.19;5058699;28;45413;-49
2022/11/04 06:08:45;;;;;;;;;1.33;0.33;;;;;11.82;71.77;99919.00;5058878;28;45410;-46
2022/11/04 06:11:11;;;;;;;;;2.00;0.00;;;;;11.84;71.60;99929.50;5059063;28;45377;-52
2022/11/04 06:13:36;;;;;;;;;2.00;0.00;;;;;11.77;71.20;99904.56;5057642;28;46327;-44
2022/11/04 06:16:01;;;;;;;;;0.33;0.00;;;;;11.86;71.65;99928.34;5058077;28;45381;-48
2022/11/04 06:18:27;;;;;;;;;2.33;0.00;;;;;11.85;71.60;99933.88;5058281;28;45380;-48
2022/11/04 06:21:13;;;;;;;;;5.33;0.00;;;;;11.87;71.71;99934.50;5058673;28;45473;-51
2022/11/04 06:23:43;;;;;;;;;5.33;2.00;;;;;11.88;71.47;99937.00;5058228;28;46079;-46
2022/11/04 06:26:10;;;;;;;;;0.33;0.00;;;;;11.86;71.22;99933.69;5058563;28;45395;-54
2022/11/04 06:28:35;;;;;;;;;0.00;0.00;;;;;11.81;71.13;99943.19;5058476;28;45290;-44
2022/11/04 06:31:02;;;;;;;;;1.67;0.00;;;;;11.85;71.48;99947.19;5057616;28;45350;-48
2022/11/04 06:33:29;;;;;;;;;1.67;0.00;;;;;11.86;71.62;99935.50;5058071;28;47097;-44
2022/11/04 06:35:58;;;;;;;;;2.67;1.00;;;;;11.86;71.43;99935.50;5058217;28;45269;-46
2022/11/04 06:38:24;;;;;;;;;1.00;1.00;;;;;11.81;71.17;99932.53;5058444;28;45315;-47
2022/11/04 06:40:49;;;;;;;;;0.00;0.00;;;;;11.84;71.05;99933.03;5058524;28;45510;-48
2022/11/04 06:43:15;;;;;;;;;0.67;0.67;;;;;11.85;71.59;99945.34;5057955;28;47208;-45
2022/11/04 06:45:40;;;;;;;;;3.67;1.00;;;;;11.85;71.02;99939.19;5058121;28;45291;-47
2022/11/04 06:48:06;;;;;;;;;3.00;0.00;;;;;11.83;71.55;99949.19;5058447;28;45158;-48
2022/11/04 06:50:31;;;;;;;;;1.00;1.00;;;;;11.84;71.15;99948.16;5058330;28;45221;-45
2022/11/04 06:52:56;;;;;;;;;0.67;0.67;;;;;11.82;71.23;99945.66;5058327;28;47045;-45
2022/11/04 06:55:22;;;;;;;;;2.00;2.00;;;;;11.81;71.44;99949.34;5058624;28;45293;-45
2022/11/04 06:57:47;;;;;;;;;1.33;0.00;;;;;11.81;71.44;99957.31;5058848;28;45406;-50
2022/11/04 07:00:13;;;;;;;;;0.00;0.00;;;;;11.83;71.27;99954.50;5059399;28;45250;-43
2022/11/04 07:02:39;;;;;;;;;2.00;1.00;;;;;11.85;71.08;99957.84;5058270;28;46362;-45
2022/11/04 07:05:04;;;;;;;;;1.00;1.00;;;;;11.52;71.41;99918.00;5056460;28;45516;-45
2022/11/04 07:07:30;;;;;;;;;2.67;0.00;;;;;11.82;71.34;99963.47;5058016;28;45301;-46
2022/11/04 07:09:55;;;;;;;;;2.00;0.00;;;;;11.83;71.33;99971.31;5058232;28;45458;-49
2022/11/04 07:12:22;;;;;;;;;1.67;1.67;;;;;11.82;71.60;99964.31;5057696;28;46116;-49
2022/11/04 07:14:48;;;;;;;;;2.00;0.33;;;;;11.82;71.25;99974.13;5057860;28;45343;-49
2022/11/04 07:17:13;;;;;;;;;2.00;0.67;;;;;11.85;70.78;99984.50;5057658;28;45306;-48
2022/11/04 07:19:38;;;;;;;;;1.00;1.00;;;;;11.80;71.28;99970.81;5057825;28;45492;-48
2022/11/04 07:22:04;;;;;;;;;0.33;0.33;;;;;11.90;71.08;99984.78;5057608;28;47241;-52
2022/11/04 07:24:29;;;;;;;;;2.33;0.67;;;;;11.90;71.25;99985.63;5057362;28;45350;-52
2022/11/04 07:26:55;;;;;;;;;1.00;1.00;;;;;11.92;71.11;99983.59;5056847;28;45433;-46
2022/11/04 07:29:20;;;;;;;;;2.67;0.33;;;;;11.94;71.08;99989.59;5057836;28;45511;-49
2022/11/04 07:31:45;;;;;;;;;0.00;0.00;;;;;11.94;70.85;99988.78;5057377;28;45198;-46
2022/11/04 07:34:11;;;;;;;;;0.00;0.00;;;;;11.97;70.58;99999.94;5057421;28;45278;-43
2022/11/04 07:36:36;;;;;;;;;2.67;0.00;;;;;11.98;70.27;100003.41;5057381;28;45548;-45
2022/11/04 07:39:02;;;;;;;;;1.00;1.00;;;;;12.02;70.45;100012.72;5057786;28;45227;-46
2022/11/04 07:41:28;;;;;;;;;2.00;1.00;;;;;12.05;70.21;100014.19;5057317;28;46095;-46
2022/11/04 07:43:53;;;;;;;;;1.00;1.00;;;;;12.08;70.69;100022.69;5057214;28;45298;-44
2022/11/04 07:46:20;;;;;;;;;1.00;0.00;;;;;12.13;70.27;100024.81;5057248;28;45246;-51
2022/11/04 07:48:46;;;;;;;;;1.33;0.00;;;;;12.14;70.14;100032.66;5057523;28;45370;-48
2022/11/04 07:51:16;;;;;;;;;1.00;1.00;;;;;12.16;69.79;100035.97;5057102;28;45343;-45
2022/11/04 07:53:41;;;;;;;;;2.33;1.00;;;;;12.17;70.03;100037.63;5057122;28;45404;-46
2022/11/04 07:56:12;;;;;;;;;1.67;0.00;;;;;12.22;69.78;100039.81;5057243;28;45342;-46
2022/11/04 07:58:38;;;;;;;;;0.67;0.67;;;;;12.26;69.62;100042.91;5057911;28;45338;-46
2022/11/04 08:01:07;;;;;;;;;0.67;0.00;;;;;12.29;69.92;100048.75;5057212;28;45457;-46
2022/11/04 08:03:34;;;;;;;;;2.33;1.00;;;;;12.32;69.63;100050.25;5057110;28;45295;-46
2022/11/04 08:06:00;;;;;;;;;2.33;1.67;;;;;12.39;69.28;100060.03;5057243;28;45321;-44
2022/11/04 08:08:26;;;;;;;;;5.67;1.67;;;;;12.45;68.59;100070.00;5057299;28;45439;-45
2022/11/04 08:11:00;;;;;;;;;2.00;0.67;;;;;12.48;68.87;100071.50;5057061;28;46997;-47
2022/11/04 08:13:30;;;;;;;;;1.00;0.00;;;;;12.57;68.58;100070.44;5056924;28;45472;-46
2022/11/04 08:15:59;;;;;;;;;0.33;0.33;;;;;12.64;67.84;100074.06;5057078;28;45426;-47
2022/11/04 08:18:24;;;;;;;;;1.00;0.00;;;;;12.75;67.88;100075.47;5057229;28;45236;-45
2022/11/04 08:20:51;;;;;;;;;2.00;1.00;;;;;12.87;67.51;100091.94;5056580;28;46172;-44
2022/11/04 08:23:17;;;;;;;;;1.67;1.00;;;;;12.90;67.12;100067.56;5053496;28;45411;-46
2022/11/04 08:25:43;;;;;;;;;2.00;1.00;;;;;13.05;66.97;100079.09;5055745;28;45334;-46
2022/11/04 08:28:12;;;;;;;;;1.00;0.00;;;;;13.09;66.94;100080.41;5057035;28;45400;-44
2022/11/04 08:30:38;;;;;;;;;1.00;1.00;;;;;13.15;66.36;100081.56;5056473;28;47088;-44
2022/11/04 08:33:04;;;;;;;;;0.00;0.00;;;;;13.23;65.97;100090.34;5056459;28;45425;-46
2022/11/04 08:35:30;;;;;;;;;0.00;0.00;;;;;13.29;65.94;100099.47;5054655;28;45445;-45
2022/11/04 08:37:55;;;;;;;;;3.67;1.00;;;;;13.22;65.49;100082.47;5057215;28;45592;-45
2022/11/04 08:40:21;;;;;;;;;1.33;0.67;;;;;13.25;65.01;100095.50;5059787;28;45487;-43
2022/11/04 08:42:46;;;;;;;;;0.00;0.00;;;;;13.29;65.16;100098.66;5059332;28;45336;-48
2022/11/04 08:45:12;;;;;;;;;1.00;1.00;;;;;13.29;65.36;100095.97;5060142;28;45453;-43
2022/11/04 08:47:38;;;;;;;;;1.00;0.00;;;;;13.30;64.76;100111.00;5059006;28;45384;-47
2022/11/04 08:50:04;;;;;;;;;0.00;0.00;;;;;13.28;64.17;100119.19;5059869;28;46173;-47
2022/11/04 08:52:29;;;;;;;;;1.00;1.00;;;;;13.22;64.83;100123.38;5059836;28;45582;-46
2022/11/04 08:54:54;;;;;;;;;0.00;0.00;;;;;13.25;64.94;100129.41;5060105;28;45311;-44
2022/11/04 08:57:20;;;;;;;;;0.67;0.67;;;;;13.26;64.50;100131.06;5060310;28;45228;-45
2022/11/04 08:59:45;;;;;;;;;3.00;0.00;;;;;13.26;64.66;100129.22;5059674;28;46108;-43
2022/11/04 09:02:17;;;;;;;;;0.00;0.00;;;;;13.29;64.36;100144.88;5059843;28;45330;-46
2022/11/04 09:04:42;;;;;;;;;2.00;1.00;;;;;13.33;64.29;100153.38;5059801;28;45446;-45
2022/11/04 09:07:08;;;;;;;;;2.33;1.00;;;;;13.37;64.23;100149.34;5060010;28;45322;-46
2022/11/04 09:09:33;;;;;;;;;1.67;1.00;;;;;13.39;64.03;100158.00;5059697;28;46095;-45
2022/11/04 09:11:58;;;;;;;;;0.33;0.33;;;;;13.40;63.73;100154.31;5059513;28;45449;-45
2022/11/04 09:14:24;;;;;;;;;1.00;0.67;;;;;13.42;63.73;100153.13;5059715;28;45358;-43
2022/11/04 09:16:49;;;;;;;;;0.00;0.00;;;;;13.44;63.12;100158.28;5060000;28;45432;-44
2022/11/04 09:19:14;;;;;;;;;0.00;0.00;;;;;13.43;62.74;100160.13;5059625;28;47043;-44
2022/11/04 09:21:40;;;;;;;;;0.00;0.00;;;;;13.43;63.37;100167.31;5059484;28;45170;-42
2022/11/04 09:24:06;;;;;;;;;1.00;1.00;;;;;13.47;63.14;100173.97;5058935;28;45720;-44
2022/11/04 09:26:32;;;;;;;;;2.00;0.00;;;;;13.48;63.11;100176.47;5058979;28;45456;-46
2022/11/04 09:28:58;;;;;;;;;1.67;1.67;;;;;13.51;62.85;100177.94;5059400;28;45342;-46
2022/11/04 09:31:26;;;;;;;;;2.00;0.00;;;;;13.54;62.94;100182.09;5059296;28;45285;-43
2022/11/04 09:33:53;;;;;;;;;1.00;0.00;;;;;13.58;62.38;100191.44;5059344;28;45430;-45
2022/11/04 09:36:18;;;;;;;;;1.67;0.00;;;;;13.60;62.29;100192.06;5059232;28;45383;-44
2022/11/04 09:38:44;;;;;;;;;1.67;0.00;;;;;13.64;62.35;100188.03;5059030;28;46105;-44
2022/11/04 09:41:45;;;;;;;;;0.00;0.00;;;;;13.67;62.86;100206.38;5059255;28;45406;-44
2022/11/04 09:44:39;;;;;;;;;0.00;0.00;;;;;13.69;62.61;100207.88;5059384;28;45326;-45
2022/11/04 09:47:09;;;;;;;;;3.33;0.00;;;;;13.67;62.72;100201.84;5059217;28;45490;-44
2022/11/04 09:49:40;;;;;;;;;1.00;1.00;;;;;13.62;62.56;100211.44;5057877;28;47172;-46
2022/11/04 09:52:16;;;;;;;;;0.00;0.00;;;;;13.54;62.98;100212.31;5058774;28;45369;-45
2022/11/04 09:55:01;;;;;;;;;2.00;0.00;;;;;13.57;62.85;100225.34;5059088;28;45314;-43
2022/11/04 09:57:27;;;;;;;;;1.00;0.00;;;;;13.57;63.04;100230.69;5059129;28;45363;-45
2022/11/04 09:59:53;;;;;;;;;0.00;0.00;;;;;13.58;62.74;100231.50;5058779;28;45351;-50
2022/11/04 10:02:21;;;;;;;;;0.00;0.00;;;;;13.57;63.12;100237.84;5058926;28;45460;-46
2022/11/04 10:05:07;;;;;;;;;0.00;0.00;;;;;13.53;63.19;100245.41;5058999;28;45604;-44
2022/11/04 10:07:38;;;;;;;;;1.00;1.00;;;;;13.51;62.65;100252.75;5059263;28;45224;-44
2022/11/04 10:10:28;;;;;;;;;1.33;0.33;;;;;13.49;62.92;100254.78;5058542;28;45561;-44
2022/11/04 10:13:31;;;;;;;;;5.33;1.33;;;;;13.49;63.06;100257.47;5058634;28;45430;-45
2022/11/04 10:16:23;;;;;;;;;2.00;0.00;;;;;13.48;62.85;100267.31;5058776;28;45395;-44
2022/11/04 10:19:18;;;;;;;;;2.33;1.00;;;;;13.53;63.08;100272.13;5058867;28;45386;-42
2022/11/04 10:22:06;;;;;;;;;0.00;0.00;;;;;13.56;62.57;100269.09;5057158;28;45525;-44
2022/11/04 10:24:40;;;;;;;;;3.00;0.33;;;;;13.60;62.24;100281.06;5058273;28;45345;-50
2022/11/04 10:27:15;;;;;;;;;2.67;1.00;;;;;13.72;61.79;100300.22;5058750;28;45414;-47
2022/11/04 10:29:46;;;;;;;;;2.00;1.00;;;;;13.84;61.49;100303.31;5058770;28;45324;-50
2022/11/04 10:32:26;;;;;;;;;3.00;1.67;;;;;13.89;61.84;100307.09;5058204;28;45339;-43
2022/11/04 10:34:59;;;;;;;;;5.33;2.00;;;;;14.01;61.58;100310.19;5057989;28;45450;-46
2022/11/04 10:37:26;;;;;;;;;1.33;1.00;;;;;14.12;61.14;100316.97;5058519;28;45292;-49
2022/11/04 10:40:00;;;;;;;;;2.00;0.67;;;;;14.46;60.82;100320.00;5058384;28;45375;-48
2022/11/04 10:42:25;;;;;;;;;2.00;0.33;;;;;15.19;59.22;100331.75;5057943;28;45458;-52
2022/11/04 10:44:51;;;;;;;;;0.00;0.00;;;;;15.81;57.66;100318.88;5058212;28;45419;-46
2022/11/04 10:47:48;;;;;;;;;3.00;1.67;;;;;16.76;56.18;100331.03;5058195;28;45264;-47
2022/11/04 10:50:23;;;;;;;;;4.50;1.00;;;;;17.25;54.00;100335.44;5058609;28;45207;-50
2022/11/04 10:52:48;;;;;;;;;1.00;1.00;;;;;17.16;53.46;100330.22;5057028;28;46183;-48
2022/11/04 10:55:38;;;;;;;;;3.50;1.00;;;;;17.53;53.98;100341.56;5056412;28;45366;-53
2022/11/04 10:58:15;;;;;;;;;4.00;1.75;;;;;17.47;52.75;100345.03;5056911;28;45508;-46
2022/11/04 11:00:41;;;;;;;;;1.00;1.00;;;;;17.16;52.89;100350.91;5057972;28;45381;-45
2022/11/04 11:03:23;;;;;;;;;1.25;1.25;;;;;16.82;53.90;100367.88;5057422;28;47260;-46
2022/11/04 11:05:51;;;;;;;;;1.50;1.00;;;;;16.49;53.53;100364.91;5057238;28;45422;-47
2022/11/04 11:08:32;;;;;;;;;2.00;1.00;;;;;16.23;54.46;100366.34;5057699;28;45447;-47
2022/11/04 11:10:58;;;;;;;;;1.00;1.00;;;;;16.94;53.58;100366.28;5057991;28;45418;-47
2022/11/04 11:13:32;;;;;;;;;2.50;1.00;;;;;17.92;51.65;100369.63;5057249;28;46128;-47
2022/11/04 11:16:10;;;;;;;;;2.00;2.00;;;;;18.78;49.83;100366.97;5057458;28;45448;-47
2022/11/04 11:18:37;;;;;;;;;4.25;1.00;;;;;19.69;47.78;100372.31;5057703;28;45556;-46
2022/11/04 11:21:17;;;;;;;;;2.00;2.00;;;;;20.44;46.80;100372.44;5057740;28;45520;-48
2022/11/04 11:23:47;;;;;;;;;2.50;2.00;;;;;20.55;45.32;100378.19;5057237;28;45307;-46
2022/11/04 11:26:17;;;;;;;;;0.00;0.00;;;;;21.03;44.59;100364.84;5057487;28;46196;-46
2022/11/04 11:28:55;;;;;;;;;1.40;0.40;;;;;21.74;43.61;100378.78;5057747;28;45303;-45
2022/11/04 11:31:23;;;;;;;;;1.40;1.40;;;;;21.65;42.55;100376.41;5057848;28;45234;-46
2022/11/04 11:33:56;;;;;;;;;0.20;0.20;;;;;20.67;44.08;100382.66;5057225;28;46198;-47
2022/11/04 11:36:29;;;;;;;;;1.00;1.00;;;;;19.91;45.32;100386.31;5057277;28;45312;-46
2022/11/04 11:39:15;;;;;;;;;2.60;2.00;;;;;19.67;45.77;100385.19;5057919;28;45490;-50
2022/11/04 11:42:10;;;;;;;;;0.25;0.00;;;;;19.00;46.60;100390.97;5057654;28;45498;-47
2022/11/04 11:44:48;;;;;;;;;0.80;0.80;;;;;19.18;46.95;100396.56;5055243;28;45390;-48
2022/11/04 11:47:35;;;;;;;;;1.80;1.00;;;;;19.92;45.89;100400.63;5057087;28;45331;-46
2022/11/04 11:50:12;;;;;;;;;2.40;0.80;;;;;20.33;44.98;100399.34;5055829;28;45487;-46
2022/11/04 11:52:38;;;;;;;;;3.00;1.00;;;;;19.65;44.80;100398.06;5055863;28;45511;-43
2022/11/04 11:55:33;;;;;;;;;2.60;1.20;;;;;19.07;45.93;100416.06;5055348;28;46936;-45
2022/11/04 11:58:21;;;;;;;;;1.00;0.60;;;;;18.37;47.86;100418.34;5054396;28;45617;-45
2022/11/04 12:01:03;;;;;;;;;0.80;0.00;;;;;17.89;48.31;100431.91;5054307;28;45537;-46
2022/11/04 12:03:36;;;;;;;;;1.00;1.00;;;;;17.49;49.21;100433.56;5054346;28;45498;-48
2022/11/04 12:06:01;;;;;;;;;0.00;0.00;;;;;17.13;49.74;100443.50;5053851;28;46170;-47
2022/11/04 12:08:32;;;;;;;;;3.75;2.00;;;;;16.89;50.66;100449.31;5052555;28;45416;-46
2022/11/04 12:11:10;;;;;;;;;1.25;1.00;;;;;16.70;51.52;100465.06;5054196;28;45405;-45
2022/11/04 12:13:40;;;;;;;;;2.00;2.00;;;;;16.51;52.19;100446.06;5053965;28;45461;-47